createdAt,value
2018-10-01T00:02:07.523Z,21.77
2018-10-01T00:04:36.239Z,21.52
2018-10-01T00:07:05.406Z,20.72
2018-10-01T00:09:34.459Z,23.62
2018-10-01T00:12:03.233Z,21.85
2018-10-01T00:14:32.063Z,21.48
2018-10-01T00:17:00.822Z,18.67
2018-10-01T00:19:35.089Z,19.82
2018-10-01T00:22:09.050Z,22.27
2018-10-01T00:24:38.109Z,15.88
2018-10-01T00:27:06.885Z,18.35
2018-10-01T00:29:35.356Z,15.43
2018-10-01T00:32:03.758Z,16.27
2018-10-01T00:34:32.796Z,15.05
2018-10-01T00:37:01.909Z,19.92
2018-10-01T00:39:31.133Z,15.53
2018-10-01T00:41:59.559Z,20.10
2018-10-01T00:44:28.311Z,17.02
2018-10-01T00:46:57.409Z,18.17
2018-10-01T00:49:25.813Z,17.57
2018-10-01T00:51:54.172Z,18.98
2018-10-01T00:54:22.916Z,17.12
2018-10-01T00:56:51.667Z,17.75
2018-10-01T00:59:20.778Z,16.20
2018-10-01T01:01:49.287Z,18.87
2018-10-01T01:04:17.992Z,16.32
2018-10-01T01:06:47.307Z,17.00
2018-10-01T01:09:16.769Z,19.07
2018-10-01T01:11:45.497Z,19.30
2018-10-01T01:14:14.519Z,19.62
2018-10-01T01:16:43.423Z,16.77
2018-10-01T01:19:12.487Z,19.10
2018-10-01T01:21:41.239Z,18.75
2018-10-01T01:24:10.299Z,20.10
2018-10-01T01:26:38.675Z,20.57
2018-10-01T01:29:07.766Z,23.45
2018-10-01T01:31:36.468Z,23.40
2018-10-01T01:34:05.530Z,19.77
2018-10-01T01:36:34.618Z,20.20
2018-10-01T01:39:03.264Z,21.97
2018-10-01T01:41:31.651Z,22.42
2018-10-01T01:44:00.419Z,17.87
2018-10-01T01:46:29.438Z,20.27
2018-10-01T01:48:58.182Z,14.60
2018-10-01T01:51:26.997Z,19.40
2018-10-01T01:53:55.755Z,20.52
2018-10-01T01:56:24.240Z,18.15
2018-10-01T01:58:53.375Z,18.80
2018-10-01T02:01:22.348Z,28.98
2018-10-01T02:03:51.121Z,19.27
2018-10-01T02:06:19.547Z,19.00
2018-10-01T02:08:48.311Z,15.88
2018-10-01T02:11:17.714Z,15.72
2018-10-01T02:13:46.503Z,14.75
2018-10-01T02:16:15.218Z,16.57
2018-10-01T02:18:44.038Z,16.93
2018-10-01T02:21:12.416Z,16.32
2018-10-01T02:23:41.537Z,22.20
2018-10-01T02:26:10.263Z,16.62
2018-10-01T02:28:39.023Z,18.87
2018-10-01T02:31:08.474Z,18.65
2018-10-01T02:33:37.624Z,15.83
2018-10-01T02:36:06.292Z,16.93
2018-10-01T02:38:35.346Z,22.65
2018-10-01T02:41:04.175Z,18.40
2018-10-01T02:43:33.139Z,17.95
2018-10-01T02:46:01.791Z,19.23
2018-10-01T02:48:31.289Z,16.62
2018-10-01T02:51:00.539Z,16.85
2018-10-01T02:53:34.957Z,16.52
2018-10-01T02:56:03.506Z,22.30
2018-10-01T02:58:32.598Z,16.23
2018-10-01T03:01:01.019Z,16.00
2018-10-01T03:03:30.119Z,17.25
2018-10-01T03:05:58.904Z,15.70
2018-10-01T03:08:27.362Z,14.63
2018-10-01T03:10:56.410Z,12.18
2018-10-01T03:13:25.467Z,14.28
2018-10-01T03:15:54.559Z,15.45
2018-10-01T03:18:23.326Z,14.83
2018-10-01T03:20:52.345Z,15.03
2018-10-01T03:23:21.411Z,18.07
2018-10-01T03:25:50.137Z,20.82
2018-10-01T03:28:18.897Z,18.48
2018-10-01T03:30:47.617Z,16.32
2018-10-01T03:33:16.683Z,15.32
2018-10-01T03:35:45.698Z,14.40
2018-10-01T03:38:14.739Z,12.88
2018-10-01T03:40:43.461Z,20.45
2018-10-01T03:43:12.730Z,15.32
2018-10-01T03:45:41.413Z,14.38
2018-10-01T03:48:10.429Z,13.83
2018-10-01T03:50:39.506Z,14.98
2018-10-01T03:53:07.883Z,14.10
2018-10-01T03:55:36.938Z,14.10
2018-10-01T03:58:05.994Z,12.18
2018-10-01T04:00:35.280Z,15.70
2018-10-01T04:03:04.118Z,13.03
2018-10-01T04:05:33.279Z,14.33
2018-10-01T04:08:01.962Z,12.68
2018-10-01T04:10:30.339Z,10.68
2018-10-01T04:12:58.744Z,12.00
2018-10-01T04:15:27.795Z,25.23
2018-10-01T04:17:56.481Z,39.78
2018-10-01T04:20:25.585Z,18.50
2018-10-01T04:22:54.725Z,10.00
2018-10-01T04:25:23.673Z,13.60
2018-10-01T04:27:52.744Z,13.45
2018-10-01T04:30:21.773Z,13.45
2018-10-01T04:32:50.527Z,14.25
2018-10-01T04:35:18.919Z,14.40
2018-10-01T04:37:48.011Z,12.05
2018-10-01T04:40:16.396Z,10.28
2018-10-01T04:42:45.171Z,14.28
2018-10-01T04:45:14.206Z,8.25
2018-10-01T04:47:43.242Z,8.30
2018-10-01T04:50:12.330Z,13.40
2018-10-01T04:52:41.049Z,9.50
2018-10-01T04:55:09.765Z,11.73
2018-10-01T04:57:38.792Z,11.90
2018-10-01T05:00:08.025Z,12.58
2018-10-01T05:02:37.259Z,14.93
2018-10-01T05:05:05.640Z,10.53
2018-10-01T05:07:34.356Z,12.70
2018-10-01T05:10:03.470Z,9.85
2018-10-01T05:12:32.553Z,11.22
2018-10-01T05:15:01.626Z,11.40
2018-10-01T05:17:30.518Z,15.10
2018-10-01T05:19:59.218Z,10.72
2018-10-01T05:22:28.256Z,33.48
2018-10-01T05:24:57.550Z,13.75
2018-10-01T05:27:26.653Z,10.58
2018-10-01T05:29:55.394Z,15.78
2018-10-01T05:32:24.122Z,14.28
2018-10-01T05:34:53.147Z,11.18
2018-10-01T05:37:22.584Z,14.43
2018-10-01T05:39:51.678Z,13.38
2018-10-01T05:42:20.720Z,15.45
2018-10-01T05:44:49.860Z,12.00
2018-10-01T05:47:18.590Z,12.53
2018-10-01T05:49:47.685Z,11.28
2018-10-01T05:52:16.462Z,15.83
2018-10-01T05:54:46.245Z,11.85
2018-10-01T05:57:15.005Z,15.95
2018-10-01T05:59:44.043Z,12.15
2018-10-01T06:02:13.097Z,16.77
2018-10-01T06:04:42.196Z,19.75
2018-10-01T06:07:10.737Z,14.45
2018-10-01T06:09:39.773Z,15.30
2018-10-01T06:12:08.611Z,16.27
2018-10-01T06:14:37.670Z,13.22
2018-10-01T06:17:06.702Z,12.33
2018-10-01T06:19:36.063Z,11.65
2018-10-01T06:22:05.141Z,14.80
2018-10-01T06:24:34.170Z,16.67
2018-10-01T06:27:02.924Z,16.02
2018-10-01T06:29:32.069Z,14.05
2018-10-01T06:32:00.759Z,12.15
2018-10-01T06:34:29.848Z,16.67
2018-10-01T06:36:58.607Z,11.43
2018-10-01T06:39:27.058Z,13.45
2018-10-01T06:41:56.370Z,24.50
2018-10-01T06:44:25.218Z,19.48
2018-10-01T06:46:54.277Z,19.87
2018-10-01T06:49:23.319Z,29.63
2018-10-01T06:51:52.085Z,22.65
2018-10-01T06:54:21.109Z,25.27
2018-10-01T06:56:50.203Z,24.45
2018-10-01T06:59:19.245Z,18.75
2018-10-01T07:01:47.659Z,16.15
2018-10-01T07:04:16.746Z,17.12
2018-10-01T07:06:45.826Z,18.05
2018-10-01T07:09:14.883Z,18.05
2018-10-01T07:11:43.981Z,13.35
2018-10-01T07:14:12.867Z,13.58
2018-10-01T07:16:41.927Z,12.18
2018-10-01T07:19:11.066Z,40.78
2018-10-01T07:21:39.791Z,14.18
2018-10-01T07:24:08.241Z,21.90
2018-10-01T07:26:36.947Z,13.93
2018-10-01T07:29:05.456Z,20.43
2018-10-01T07:31:33.951Z,18.07
2018-10-01T07:34:02.750Z,12.73
2018-10-01T07:36:31.282Z,15.03
2018-10-01T07:38:59.871Z,36.47
2018-10-01T07:41:28.897Z,12.20
2018-10-01T07:43:57.726Z,16.90
2018-10-01T07:46:25.845Z,11.97
2018-10-01T07:48:54.317Z,12.23
2018-10-01T07:51:23.411Z,12.40
2018-10-01T07:53:52.200Z,22.05
2018-10-01T07:56:20.972Z,26.95
2018-10-01T07:58:50.345Z,17.55
2018-10-01T08:01:19.383Z,12.20
2018-10-01T08:03:48.479Z,16.20
2018-10-01T08:06:17.576Z,17.12
2018-10-01T08:08:46.856Z,13.15
2018-10-01T08:11:15.624Z,18.05
2018-10-01T08:13:44.050Z,15.38
2018-10-01T08:16:12.784Z,15.80
2018-10-01T08:18:41.830Z,13.38
2018-10-01T08:21:10.942Z,14.70
2018-10-01T08:23:39.711Z,17.65
2018-10-01T08:26:09.020Z,25.35
2018-10-01T08:28:38.251Z,16.32
2018-10-01T08:31:07.298Z,19.02
2018-10-01T08:33:35.705Z,18.23
2018-10-01T08:36:04.086Z,21.05
2018-10-01T08:38:33.190Z,21.87
2018-10-01T08:41:02.094Z,16.93
2018-10-01T08:43:31.072Z,43.63
2018-10-01T08:46:00.146Z,25.10
2018-10-01T08:48:29.609Z,26.33
2018-10-01T08:51:34.063Z,20.97
2018-10-01T08:54:24.203Z,21.03
2018-10-01T08:56:53.001Z,18.57
2018-10-01T08:59:21.199Z,15.77
2018-10-01T09:01:50.180Z,18.13
2018-10-01T09:04:18.669Z,15.63
2018-10-01T09:06:47.458Z,15.87
2018-10-01T09:09:16.071Z,26.20
2018-10-01T09:11:45.342Z,17.97
2018-10-01T09:14:14.275Z,30.37
2018-10-01T09:16:42.800Z,21.13
2018-10-01T09:19:11.548Z,49.47
2018-10-01T09:21:40.419Z,14.97
2018-10-01T09:24:09.349Z,13.70
2018-10-01T09:26:37.860Z,20.90
2018-10-01T09:29:06.339Z,20.47
2018-10-01T09:31:35.245Z,15.80
2018-10-01T09:34:03.999Z,16.07
2018-10-01T09:36:32.467Z,16.77
2018-10-01T09:39:01.252Z,20.10
2018-10-01T09:41:29.742Z,22.03
2018-10-01T09:43:58.224Z,19.17
2018-10-01T09:46:26.882Z,24.90
2018-10-01T09:48:55.844Z,15.80
2018-10-01T09:51:24.586Z,22.03
2018-10-01T09:53:53.117Z,17.67
2018-10-01T09:56:21.697Z,22.77
2018-10-01T09:58:50.642Z,17.80
2018-10-01T10:01:19.066Z,19.67
2018-10-01T10:03:48.096Z,17.80
2018-10-01T10:06:17.049Z,14.33
2018-10-01T10:08:45.789Z,16.00
2018-10-01T10:11:14.699Z,15.53
2018-10-01T10:13:43.609Z,20.70
2018-10-01T10:16:12.192Z,15.37
2018-10-01T10:18:41.048Z,22.63
2018-10-01T10:21:09.969Z,15.43
2018-10-01T10:23:38.063Z,15.40
2018-10-01T10:26:06.241Z,14.63
2018-10-01T10:28:34.698Z,22.57
2018-10-01T10:31:03.262Z,20.43
2018-10-01T10:33:31.725Z,19.23
2018-10-01T10:36:00.794Z,18.70
2018-10-01T10:38:29.576Z,18.40
2018-10-01T10:40:57.867Z,17.80
2018-10-01T10:43:27.170Z,31.17
2018-10-01T10:45:55.909Z,28.43
2018-10-01T10:48:24.329Z,18.10
2018-10-01T10:50:52.982Z,22.63
2018-10-01T10:53:21.956Z,16.20
2018-10-01T10:55:50.085Z,16.20
2018-10-01T10:58:18.856Z,18.27
2018-10-01T11:00:47.585Z,18.57
2018-10-01T11:03:16.027Z,22.50
2018-10-01T11:05:44.761Z,21.83
2018-10-01T11:08:13.555Z,14.57
2018-10-01T11:10:42.447Z,16.43
2018-10-01T11:13:11.356Z,15.27
2018-10-01T11:15:40.561Z,40.53
2018-10-01T11:18:10.113Z,14.63
2018-10-01T11:20:38.881Z,12.43
2018-10-01T11:23:07.821Z,18.97
2018-10-01T11:25:36.898Z,20.93
2018-10-01T11:28:05.460Z,13.33
2018-10-01T11:30:34.062Z,11.13
2018-10-01T11:33:02.349Z,18.07
2018-10-01T11:35:30.998Z,15.13
2018-10-01T11:38:00.233Z,16.65
2018-10-01T11:40:29.298Z,13.43
2018-10-01T11:42:58.359Z,16.97
2018-10-01T11:45:27.700Z,14.23
2018-10-01T11:47:56.955Z,15.53
2018-10-01T11:50:25.438Z,15.47
2018-10-01T11:52:54.474Z,20.50
2018-10-01T11:55:23.185Z,23.75
2018-10-01T11:57:52.202Z,16.27
2018-10-01T12:00:20.984Z,16.82
2018-10-01T12:02:50.026Z,11.95
2018-10-01T12:05:18.779Z,14.15
2018-10-01T12:07:47.927Z,10.38
2018-10-01T12:10:16.981Z,15.58
2018-10-01T12:12:45.706Z,12.58
2018-10-01T12:15:14.814Z,12.07
2018-10-01T12:17:43.668Z,16.93
2018-10-01T12:20:12.752Z,12.45
2018-10-01T12:22:41.758Z,7.60
2018-10-01T12:25:10.514Z,10.72
2018-10-01T12:27:39.373Z,9.30
2018-10-01T12:30:07.837Z,9.95
2018-10-01T12:32:36.884Z,10.50
2018-10-01T12:35:05.501Z,11.20
2018-10-01T12:37:34.884Z,12.00
2018-10-01T12:40:03.583Z,8.95
2018-10-01T12:42:32.621Z,12.60
2018-10-01T12:45:01.634Z,9.33
2018-10-01T12:47:30.870Z,13.45
2018-10-01T12:49:59.953Z,16.25
2018-10-01T12:52:28.637Z,9.55
2018-10-01T12:54:57.315Z,11.70
2018-10-01T12:57:26.392Z,12.85
2018-10-01T12:59:55.621Z,7.28
2018-10-01T13:02:24.908Z,9.15
2018-10-01T13:04:53.707Z,9.90
2018-10-01T13:07:23.015Z,10.05
2018-10-01T13:09:51.111Z,11.67
2018-10-01T13:12:20.279Z,11.63
2018-10-01T13:14:49.519Z,10.40
2018-10-01T13:17:18.291Z,10.13
2018-10-01T13:19:47.214Z,7.20
2018-10-01T13:22:16.254Z,13.63
2018-10-01T13:24:44.959Z,6.93
2018-10-01T13:27:13.879Z,8.43
2018-10-01T13:29:42.343Z,5.03
2018-10-01T13:32:11.137Z,5.53
2018-10-01T13:34:39.702Z,8.07
2018-10-01T13:37:08.177Z,13.53
2018-10-01T13:39:36.725Z,10.10
2018-10-01T13:42:06.151Z,5.03
2018-10-01T13:44:34.811Z,9.60
2018-10-01T13:47:03.859Z,8.27
2018-10-01T13:49:32.292Z,6.60
2018-10-01T13:52:01.023Z,10.00
2018-10-01T13:54:30.043Z,5.00
2018-10-01T13:56:58.662Z,8.87
2018-10-01T13:59:27.077Z,6.67
2018-10-01T14:01:55.613Z,9.70
2018-10-01T14:04:24.185Z,7.93
2018-10-01T14:06:53.131Z,12.40
2018-10-01T14:09:22.280Z,8.93
2018-10-01T14:11:50.969Z,7.78
2018-10-01T14:14:19.806Z,7.63
2018-10-01T14:16:48.597Z,7.33
2018-10-01T14:19:17.918Z,9.00
2018-10-01T14:21:46.785Z,6.55
2018-10-01T14:24:15.922Z,8.98
2018-10-01T14:26:44.978Z,5.40
2018-10-01T14:29:14.192Z,6.47
2018-10-01T14:31:43.065Z,7.42
2018-10-01T14:34:11.842Z,6.55
2018-10-01T14:36:41.028Z,5.97
2018-10-01T14:39:16.337Z,3.85
2018-10-01T14:41:45.055Z,6.50
2018-10-01T14:44:13.785Z,6.55
2018-10-01T14:46:42.850Z,5.10
2018-10-01T14:49:11.560Z,4.65
2018-10-01T14:51:40.659Z,8.65
2018-10-01T14:54:09.442Z,5.60
2018-10-01T14:56:38.689Z,9.28
2018-10-01T14:59:07.563Z,12.23
2018-10-01T15:01:36.585Z,6.42
2018-10-01T15:04:05.647Z,6.33
2018-10-01T15:06:35.047Z,5.12
2018-10-01T15:09:04.203Z,4.05
2018-10-01T15:11:33.273Z,4.40
2018-10-01T15:14:02.330Z,7.22
2018-10-01T15:16:31.022Z,6.33
2018-10-01T15:19:00.146Z,6.65
2018-10-01T15:21:29.698Z,7.08
2018-10-01T15:23:58.965Z,7.60
2018-10-01T15:26:28.207Z,8.58
2018-10-01T15:28:57.750Z,7.30
2018-10-01T15:31:26.472Z,3.60
2018-10-01T15:33:55.933Z,6.03
2018-10-01T15:36:24.985Z,4.50
2018-10-01T15:38:54.182Z,7.55
2018-10-01T15:41:22.722Z,9.03
2018-10-01T15:43:51.411Z,8.80
2018-10-01T15:46:20.691Z,5.55
2018-10-01T15:48:49.438Z,8.85
2018-10-01T15:51:18.538Z,3.40
2018-10-01T15:53:47.225Z,5.60
2018-10-01T15:56:15.976Z,6.40
2018-10-01T15:58:44.917Z,8.70
2018-10-01T16:01:13.485Z,8.58
2018-10-01T16:03:42.482Z,6.08
2018-10-01T16:06:11.252Z,7.55
2018-10-01T16:08:39.828Z,8.30
2018-10-01T16:11:08.719Z,8.88
2018-10-01T16:13:38.055Z,8.35
2018-10-01T16:16:07.202Z,9.40
2018-10-01T16:18:36.077Z,7.05
2018-10-01T16:21:04.529Z,4.87
2018-10-01T16:23:33.581Z,6.50
2018-10-01T16:26:02.601Z,6.60
2018-10-01T16:28:31.505Z,6.85
2018-10-01T16:31:00.354Z,7.87
2018-10-01T16:33:29.421Z,13.93
2018-10-01T16:35:58.520Z,7.03
2018-10-01T16:38:27.645Z,8.28
2018-10-01T16:40:56.553Z,6.75
2018-10-01T16:43:25.453Z,6.55
2018-10-01T16:45:54.239Z,8.85
2018-10-01T16:48:23.381Z,10.53
2018-10-01T16:50:52.255Z,9.03
2018-10-01T16:53:21.314Z,16.77
2018-10-01T16:55:50.414Z,7.70
2018-10-01T16:58:19.252Z,7.28
2018-10-01T17:00:48.173Z,12.45
2018-10-01T17:03:17.498Z,8.25
2018-10-01T17:05:46.601Z,10.70
2018-10-01T17:08:15.383Z,7.28
2018-10-01T17:10:44.162Z,8.13
2018-10-01T17:13:13.013Z,9.78
2018-10-01T17:15:41.751Z,12.35
2018-10-01T17:18:10.955Z,12.47
2018-10-01T17:20:39.348Z,10.68
2018-10-01T17:23:08.024Z,7.75
2018-10-01T17:25:36.822Z,8.98
2018-10-01T17:28:05.499Z,8.35
2018-10-01T17:30:34.749Z,7.22
2018-10-01T17:33:03.849Z,12.25
2018-10-01T17:35:32.678Z,7.85
2018-10-01T17:38:01.790Z,12.73
2018-10-01T17:40:30.958Z,8.35
2018-10-01T17:43:00.003Z,11.65
2018-10-01T17:45:28.806Z,10.58
2018-10-01T17:47:58.081Z,12.05
2018-10-01T17:50:27.242Z,9.50
2018-10-01T17:52:56.424Z,9.78
2018-10-01T17:55:25.141Z,11.25
2018-10-01T17:57:53.873Z,7.25
2018-10-01T18:00:22.379Z,8.60
2018-10-01T18:02:51.150Z,10.90
2018-10-01T18:05:20.333Z,10.55
2018-10-01T18:07:49.159Z,6.60
2018-10-01T18:10:18.067Z,5.60
2018-10-01T18:12:47.220Z,3.37
2018-10-01T18:15:16.009Z,4.17
2018-10-01T18:17:44.810Z,5.62
2018-10-01T18:20:14.001Z,7.20
2018-10-01T18:22:43.189Z,8.23
2018-10-01T18:25:12.208Z,4.35
2018-10-01T18:27:41.222Z,3.35
2018-10-01T18:30:10.313Z,3.17
2018-10-01T18:32:39.177Z,3.08
2018-10-01T18:35:07.794Z,3.67
2018-10-01T18:37:36.549Z,3.40
2018-10-01T18:40:08.477Z,5.15
2018-10-01T18:42:37.538Z,3.77
2018-10-01T18:45:05.884Z,3.00
2018-10-01T18:47:34.914Z,3.62
2018-10-01T18:50:03.306Z,1.85
2018-10-01T18:52:31.990Z,3.80
2018-10-01T18:55:00.661Z,2.80
2018-10-01T18:57:30.043Z,4.33
2018-10-01T18:59:59.017Z,3.35
2018-10-01T19:02:28.154Z,4.83
2018-10-01T19:04:57.199Z,3.10
2018-10-01T19:07:26.470Z,5.85
2018-10-01T19:09:55.205Z,3.90
2018-10-01T19:12:23.950Z,4.15
2018-10-01T19:14:53.150Z,2.70
2018-10-01T19:17:22.363Z,3.42
2018-10-01T19:19:51.738Z,4.92
2018-10-01T19:22:20.111Z,3.15
2018-10-01T19:24:48.898Z,2.33
2018-10-01T19:27:17.738Z,3.05
2018-10-01T19:29:46.635Z,3.85
2018-10-01T19:32:15.982Z,3.47
2018-10-01T19:34:44.681Z,5.17
2018-10-01T19:37:13.933Z,4.65
2018-10-01T19:39:43.205Z,3.87
2018-10-01T19:42:11.992Z,3.62
2018-10-01T19:44:41.129Z,2.80
2018-10-01T19:47:10.010Z,5.60
2018-10-01T19:49:38.894Z,4.55
2018-10-01T19:52:07.598Z,3.83
2018-10-01T19:54:36.808Z,3.77
2018-10-01T19:57:05.319Z,3.80
2018-10-01T19:59:34.390Z,5.95
2018-10-01T20:02:03.107Z,3.10
2018-10-01T20:04:31.765Z,4.47
2018-10-01T20:07:01.177Z,4.45
2018-10-01T20:09:30.175Z,3.50
2018-10-01T20:11:59.205Z,3.52
2018-10-01T20:14:28.241Z,6.08
2018-10-01T20:16:57.324Z,5.00
2018-10-01T20:19:26.183Z,4.40
2018-10-01T20:21:54.900Z,4.53
2018-10-01T20:24:24.165Z,2.85
2018-10-01T20:26:53.480Z,7.10
2018-10-01T20:29:22.982Z,3.30
2018-10-01T20:31:51.830Z,4.85
2018-10-01T20:34:20.718Z,3.90
2018-10-01T20:36:49.765Z,4.58
2018-10-01T20:39:18.792Z,3.00
2018-10-01T20:41:48.020Z,3.60
2018-10-01T20:44:17.303Z,7.10
2018-10-01T20:46:46.477Z,2.98
2018-10-01T20:49:15.658Z,8.15
2018-10-01T20:51:44.681Z,4.08
2018-10-01T20:54:13.696Z,2.02
2018-10-01T20:56:44.165Z,4.67
2018-10-01T20:59:13.566Z,4.62
2018-10-01T21:01:42.397Z,7.15
2018-10-01T21:04:11.493Z,7.83
2018-10-01T21:06:40.335Z,2.55
2018-10-01T21:09:10.625Z,5.12
2018-10-01T21:11:39.410Z,6.08
2018-10-01T21:14:08.465Z,5.22
2018-10-01T21:16:37.903Z,7.20
2018-10-01T21:19:06.417Z,8.18
2018-10-01T21:21:35.480Z,5.35
2018-10-01T21:24:04.490Z,7.90
2018-10-01T21:26:33.558Z,8.85
2018-10-01T21:29:02.870Z,4.35
2018-10-01T21:31:31.919Z,7.08
2018-10-01T21:34:00.673Z,4.20
2018-10-01T21:36:29.609Z,4.60
2018-10-01T21:38:58.406Z,5.95
2018-10-01T21:41:27.149Z,16.62
2018-10-01T21:43:56.156Z,2.60
2018-10-01T21:46:25.490Z,5.35
2018-10-01T21:48:54.548Z,11.08
2018-10-01T21:51:23.396Z,4.58
2018-10-01T21:53:52.410Z,5.25
2018-10-01T21:56:21.101Z,7.65
2018-10-01T21:58:50.113Z,7.90
2018-10-01T22:01:31.155Z,5.50
2018-10-01T22:03:59.969Z,6.15
2018-10-01T22:06:28.790Z,4.15
2018-10-01T22:08:57.885Z,5.78
2018-10-01T22:11:26.918Z,6.78
2018-10-01T22:13:56.470Z,6.35
2018-10-01T22:16:25.177Z,7.30
2018-10-01T22:18:54.189Z,8.88
2018-10-01T22:21:23.197Z,4.55
2018-10-01T22:23:51.891Z,6.45
2018-10-01T22:26:20.613Z,11.38
2018-10-01T22:28:49.297Z,5.05
2018-10-01T22:31:17.652Z,6.08
2018-10-01T22:33:46.994Z,4.97
2018-10-01T22:36:16.110Z,7.42
2018-10-01T22:38:45.131Z,10.08
2018-10-01T22:41:14.177Z,7.78
2018-10-01T22:43:43.202Z,7.92
2018-10-01T22:46:11.937Z,6.95
2018-10-01T22:48:40.619Z,7.20
2018-10-01T22:51:09.665Z,6.47
2018-10-01T22:53:38.681Z,4.72
2018-10-01T22:56:07.234Z,4.30
2018-10-01T22:58:35.919Z,6.00
2018-10-01T23:01:04.597Z,11.18
2018-10-01T23:03:33.672Z,5.80
2018-10-01T23:06:02.681Z,7.92
2018-10-01T23:08:31.238Z,5.53
2018-10-01T23:10:59.931Z,3.05
2018-10-01T23:13:28.609Z,9.43
2018-10-01T23:15:57.916Z,4.17
2018-10-01T23:18:27.174Z,5.75
2018-10-01T23:20:56.217Z,6.10
2018-10-01T23:23:25.242Z,10.15
2018-10-01T23:25:54.540Z,7.05
2018-10-01T23:28:23.556Z,8.80
2018-10-01T23:30:52.224Z,5.05
2018-10-01T23:33:21.264Z,5.33
2018-10-01T23:35:50.011Z,4.72
2018-10-01T23:38:19.080Z,8.65
2018-10-01T23:40:48.009Z,8.18
2018-10-01T23:43:16.718Z,6.05
2018-10-01T23:45:45.769Z,8.98
2018-10-01T23:48:14.780Z,8.55
2018-10-01T23:50:43.525Z,6.87
2018-10-01T23:53:11.893Z,3.62
2018-10-01T23:55:40.982Z,3.25
2018-10-01T23:58:09.974Z,9.40
